sensor_id;sensor_type;location;lat;lon;timestamp;P1;durP1;ratioP1;P2;durP2;ratioP2
39822;SDS011;25499;53.958;10.970;2023-05-07T06:06:04;9.32;;;7.70;;
39822;SDS011;25499;53.958;10.970;2023-05-07T06:08:31;10.85;;;8.10;;
39822;SDS011;25499;53.958;10.970;2023-05-07T06:10:58;9.32;;;8.10;;
39822;SDS011;25499;53.958;10.970;2023-05-07T06:13:25;8.88;;;7.43;;
39822;SDS011;25499;53.958;10.970;2023-05-07T06:15:51;10.75;;;8.35;;
39822;SDS011;25499;53.958;10.970;2023-05-07T06:18:18;12.60;;;8.95;;
39822;SDS011;25499;53.958;10.970;2023-05-07T06:20:46;10.90;;;7.90;;
39822;SDS011;25499;53.958;10.970;2023-05-07T06:23:15;12.30;;;9.23;;
39822;SDS011;25499;53.958;10.970;2023-05-07T06:25:41;10.95;;;8.98;;
39822;SDS011;25499;53.958;10.970;2023-05-07T06:28:08;11.98;;;9.02;;
39822;SDS011;25499;53.958;10.970;2023-05-07T06:30:36;10.60;;;9.32;;
39822;SDS011;25499;53.958;10.970;2023-05-07T06:33:03;13.40;;;9.13;;
39822;SDS011;25499;53.958;10.970;2023-05-07T06:35:29;10.77;;;9.43;;
39822;SDS011;25499;53.958;10.970;2023-05-07T06:37:56;13.35;;;9.70;;
39822;SDS011;25499;53.958;10.970;2023-05-07T06:40:24;13.15;;;9.40;;
39822;SDS011;25499;53.958;10.970;2023-05-07T06:42:51;12.13;;;9.65;;
39822;SDS011;25499;53.958;10.970;2023-05-07T06:45:18;12.57;;;9.85;;
39822;SDS011;25499;53.958;10.970;2023-05-07T06:47:45;10.93;;;9.15;;
39822;SDS011;25499;53.958;10.970;2023-05-07T06:50:12;12.45;;;9.25;;
39822;SDS011;25499;53.958;10.970;2023-05-07T06:52:41;11.73;;;8.93;;
39822;SDS011;25499;53.958;10.970;2023-05-07T06:55:08;11.68;;;8.68;;
39822;SDS011;25499;53.958;10.970;2023-05-07T06:57:37;11.50;;;7.65;;
39822;SDS011;25499;53.958;10.970;2023-05-07T07:00:05;9.82;;;8.10;;
39822;SDS011;25499;53.958;10.970;2023-05-07T07:02:33;9.73;;;8.10;;
39822;SDS011;25499;53.958;10.970;2023-05-07T07:05:00;10.30;;;7.85;;
39822;SDS011;25499;53.958;10.970;2023-05-07T07:07:27;11.07;;;8.50;;
39822;SDS011;25499;53.958;10.970;2023-05-07T07:09:54;12.35;;;7.85;;
39822;SDS011;25499;53.958;10.970;2023-05-07T07:12:20;9.38;;;7.63;;
39822;SDS011;25499;53.958;10.970;2023-05-07T07:14:49;10.82;;;7.63;;
39822;SDS011;25499;53.958;10.970;2023-05-07T07:17:15;9.20;;;7.38;;
39822;SDS011;25499;53.958;10.970;2023-05-07T07:19:42;9.65;;;7.63;;
39822;SDS011;25499;53.958;10.970;2023-05-07T07:22:09;9.05;;;7.28;;
39822;SDS011;25499;53.958;10.970;2023-05-07T07:24:36;8.30;;;7.40;;
39822;SDS011;25499;53.958;10.970;2023-05-07T07:27:02;8.05;;;6.47;;
39822;SDS011;25499;53.958;10.970;2023-05-07T07:29:31;9.27;;;6.47;;
39822;SDS011;25499;53.958;10.970;2023-05-07T07:31:59;8.43;;;6.60;;
39822;SDS011;25499;53.958;10.970;2023-05-07T07:34:25;8.20;;;6.53;;
39822;SDS011;25499;53.958;10.970;2023-05-07T07:36:52;9.15;;;7.18;;
39822;SDS011;25499;53.958;10.970;2023-05-07T07:39:19;9.35;;;6.57;;
39822;SDS011;25499;53.958;10.970;2023-05-07T07:41:46;7.18;;;6.47;;
39822;SDS011;25499;53.958;10.970;2023-05-07T07:44:13;9.02;;;6.70;;
39822;SDS011;25499;53.958;10.970;2023-05-07T07:46:40;6.38;;;5.75;;
39822;SDS011;25499;53.958;10.970;2023-05-07T07:49:08;6.60;;;4.75;;
39822;SDS011;25499;53.958;10.970;2023-05-07T07:51:35;6.25;;;5.20;;
39822;SDS011;25499;53.958;10.970;2023-05-07T07:54:01;6.40;;;5.50;;
39822;SDS011;25499;53.958;10.970;2023-05-07T07:56:28;6.68;;;4.93;;
39822;SDS011;25499;53.958;10.970;2023-05-07T07:58:55;5.55;;;5.05;;
39822;SDS011;25499;53.958;10.970;2023-05-07T08:01:22;5.72;;;5.05;;
39822;SDS011;25499;53.958;10.970;2023-05-07T08:03:49;6.45;;;5.18;;
39822;SDS011;25499;53.958;10.970;2023-05-07T08:06:17;5.88;;;5.00;;
39822;SDS011;25499;53.958;10.970;2023-05-07T08:08:43;5.50;;;4.90;;
39822;SDS011;25499;53.958;10.970;2023-05-07T08:11:10;7.13;;;5.25;;
39822;SDS011;25499;53.958;10.970;2023-05-07T08:13:37;5.50;;;4.93;;
39822;SDS011;25499;53.958;10.970;2023-05-07T08:16:04;4.97;;;4.47;;
39822;SDS011;25499;53.958;10.970;2023-05-07T08:18:31;4.97;;;4.30;;
39822;SDS011;25499;53.958;10.970;2023-05-07T08:20:58;5.80;;;4.72;;
39822;SDS011;25499;53.958;10.970;2023-05-07T08:23:26;4.88;;;4.38;;
39822;SDS011;25499;53.958;10.970;2023-05-07T08:25:53;4.88;;;4.43;;
39822;SDS011;25499;53.958;10.970;2023-05-07T08:28:19;5.03;;;3.70;;
39822;SDS011;25499;53.958;10.970;2023-05-07T08:30:46;4.65;;;3.97;;
39822;SDS011;25499;53.958;10.970;2023-05-07T08:33:13;4.90;;;4.30;;
39822;SDS011;25499;53.958;10.970;2023-05-07T08:35:39;4.75;;;4.35;;
39822;SDS011;25499;53.958;10.970;2023-05-07T08:38:06;5.28;;;3.80;;
39822;SDS011;25499;53.958;10.970;2023-05-07T08:40:36;4.15;;;3.75;;
39822;SDS011;25499;53.958;10.970;2023-05-07T08:43:05;4.55;;;3.75;;
39822;SDS011;25499;53.958;10.970;2023-05-07T08:45:32;7.10;;;3.85;;
39822;SDS011;25499;53.958;10.970;2023-05-07T08:48:01;6.38;;;3.88;;
39822;SDS011;25499;53.958;10.970;2023-05-07T08:50:30;6.85;;;3.90;;
39822;SDS011;25499;53.958;10.970;2023-05-07T08:52:56;6.85;;;3.83;;
39822;SDS011;25499;53.958;10.970;2023-05-07T08:55:23;6.25;;;3.95;;
39822;SDS011;25499;53.958;10.970;2023-05-07T08:57:51;4.25;;;3.85;;
39822;SDS011;25499;53.958;10.970;2023-05-07T09:00:18;9.60;;;3.92;;
39822;SDS011;25499;53.958;10.970;2023-05-07T09:02:45;4.85;;;2.83;;
39822;SDS011;25499;53.958;10.970;2023-05-07T09:05:12;4.13;;;3.53;;
39822;SDS011;25499;53.958;10.970;2023-05-07T09:07:39;3.55;;;3.17;;
39822;SDS011;25499;53.958;10.970;2023-05-07T09:10:06;3.60;;;3.30;;
39822;SDS011;25499;53.958;10.970;2023-05-07T09:12:33;4.15;;;3.42;;
39822;SDS011;25499;53.958;10.970;2023-05-07T09:15:02;3.72;;;3.40;;
39822;SDS011;25499;53.958;10.970;2023-05-07T09:17:30;4.85;;;3.50;;
39822;SDS011;25499;53.958;10.970;2023-05-07T09:19:57;3.28;;;2.97;;
39822;SDS011;25499;53.958;10.970;2023-05-07T09:22:31;3.30;;;3.00;;
39822;SDS011;25499;53.958;10.970;2023-05-07T09:24:57;3.30;;;3.00;;
39822;SDS011;25499;53.958;10.970;2023-05-07T09:27:25;3.80;;;2.60;;
39822;SDS011;25499;53.958;10.970;2023-05-07T09:29:52;3.13;;;2.65;;
39822;SDS011;25499;53.958;10.970;2023-05-07T09:32:20;4.45;;;2.78;;
39822;SDS011;25499;53.958;10.970;2023-05-07T09:34:47;2.80;;;2.50;;
39822;SDS011;25499;53.958;10.970;2023-05-07T09:37:13;3.83;;;2.80;;
39822;SDS011;25499;53.958;10.970;2023-05-07T09:39:42;2.45;;;2.25;;
39822;SDS011;25499;53.958;10.970;2023-05-07T09:42:09;3.05;;;2.55;;
39822;SDS011;25499;53.958;10.970;2023-05-07T09:44:37;3.17;;;2.70;;
39822;SDS011;25499;53.958;10.970;2023-05-07T09:47:05;2.00;;;1.90;;
39822;SDS011;25499;53.958;10.970;2023-05-07T09:49:35;3.85;;;2.58;;
39822;SDS011;25499;53.958;10.970;2023-05-07T09:52:03;2.20;;;2.00;;
39822;SDS011;25499;53.958;10.970;2023-05-07T09:54:33;2.72;;;2.03;;
39822;SDS011;25499;53.958;10.970;2023-05-07T09:57:03;2.55;;;2.05;;
39822;SDS011;25499;53.958;10.970;2023-05-07T09:59:31;2.22;;;2.03;;
39822;SDS011;25499;53.958;10.970;2023-05-07T10:01:59;4.78;;;2.00;;
39822;SDS011;25499;53.958;10.970;2023-05-07T10:04:28;2.42;;;1.80;;
39822;SDS011;25499;53.958;10.970;2023-05-07T10:06:58;2.15;;;1.95;;
39822;SDS011;25499;53.958;10.970;2023-05-07T10:09:25;2.10;;;1.90;;
39822;SDS011;25499;53.958;10.970;2023-05-07T10:11:52;7.20;;;1.90;;
39822;SDS011;25499;53.958;10.970;2023-05-07T10:14:20;2.35;;;1.83;;
39822;SDS011;25499;53.958;10.970;2023-05-07T10:16:47;3.03;;;1.58;;
39822;SDS011;25499;53.958;10.970;2023-05-07T10:19:14;1.95;;;1.77;;
39822;SDS011;25499;53.958;10.970;2023-05-07T10:21:44;2.67;;;1.50;;
39822;SDS011;25499;53.958;10.970;2023-05-07T10:24:19;2.38;;;1.90;;
39822;SDS011;25499;53.958;10.970;2023-05-07T10:26:49;1.52;;;1.05;;
39822;SDS011;25499;53.958;10.970;2023-05-07T10:29:18;2.35;;;1.85;;
39822;SDS011;25499;53.958;10.970;2023-05-07T10:31:55;1.80;;;1.70;;
39822;SDS011;25499;53.958;10.970;2023-05-07T10:34:27;1.98;;;1.20;;
39822;SDS011;25499;53.958;10.970;2023-05-07T10:37:02;2.85;;;2.00;;
39822;SDS011;25499;53.958;10.970;2023-05-07T10:39:31;2.35;;;1.83;;
39822;SDS011;25499;53.958;10.970;2023-05-07T10:42:06;2.35;;;1.80;;
39822;SDS011;25499;53.958;10.970;2023-05-07T10:44:34;1.70;;;1.60;;
39822;SDS011;25499;53.958;10.970;2023-05-07T10:47:06;2.28;;;1.63;;
39822;SDS011;25499;53.958;10.970;2023-05-07T10:49:34;2.78;;;1.85;;
39822;SDS011;25499;53.958;10.970;2023-05-07T10:52:11;2.05;;;1.67;;
39822;SDS011;25499;53.958;10.970;2023-05-07T10:54:41;3.28;;;1.90;;
39822;SDS011;25499;53.958;10.970;2023-05-07T11:00:00;2.33;;;1.73;;
39822;SDS011;25499;53.958;10.970;2023-05-07T11:05:23;2.90;;;1.98;;
39822;SDS011;25499;53.958;10.970;2023-05-07T11:07:53;3.47;;;1.90;;
39822;SDS011;25499;53.958;10.970;2023-05-07T11:10:22;1.80;;;1.30;;
39822;SDS011;25499;53.958;10.970;2023-05-07T11:12:54;3.17;;;1.77;;
39822;SDS011;25499;53.958;10.970;2023-05-07T11:15:37;2.25;;;1.67;;
39822;SDS011;25499;53.958;10.970;2023-05-07T11:18:04;1.83;;;1.73;;
39822;SDS011;25499;53.958;10.970;2023-05-07T11:20:45;3.95;;;1.90;;
39822;SDS011;25499;53.958;10.970;2023-05-07T11:26:25;2.20;;;1.60;;
39822;SDS011;25499;53.958;10.970;2023-05-07T11:28:53;1.40;;;1.23;;
39822;SDS011;25499;53.958;10.970;2023-05-07T11:31:21;2.53;;;1.70;;
39822;SDS011;25499;53.958;10.970;2023-05-07T11:33:51;2.65;;;1.77;;
39822;SDS011;25499;53.958;10.970;2023-05-07T11:36:19;2.38;;;1.95;;
39822;SDS011;25499;53.958;10.970;2023-05-07T11:38:46;4.22;;;1.73;;
39822;SDS011;25499;53.958;10.970;2023-05-07T11:41:13;2.30;;;1.77;;
39822;SDS011;25499;53.958;10.970;2023-05-07T11:43:54;1.25;;;1.10;;
39822;SDS011;25499;53.958;10.970;2023-05-07T11:46:23;2.45;;;1.80;;
39822;SDS011;25499;53.958;10.970;2023-05-07T11:48:49;3.20;;;1.92;;
39822;SDS011;25499;53.958;10.970;2023-05-07T11:51:20;3.80;;;1.90;;
39822;SDS011;25499;53.958;10.970;2023-05-07T11:53:47;3.40;;;1.90;;
39822;SDS011;25499;53.958;10.970;2023-05-07T11:56:14;2.67;;;1.65;;
39822;SDS011;25499;53.958;10.970;2023-05-07T11:58:42;3.05;;;1.70;;
39822;SDS011;25499;53.958;10.970;2023-05-07T12:01:12;1.83;;;1.63;;
39822;SDS011;25499;53.958;10.970;2023-05-07T12:03:40;2.08;;;1.02;;
39822;SDS011;25499;53.958;10.970;2023-05-07T12:06:09;1.88;;;1.50;;
39822;SDS011;25499;53.958;10.970;2023-05-07T12:08:37;3.08;;;1.70;;
39822;SDS011;25499;53.958;10.970;2023-05-07T12:11:08;1.75;;;1.60;;
39822;SDS011;25499;53.958;10.970;2023-05-07T12:13:36;3.92;;;1.40;;
39822;SDS011;25499;53.958;10.970;2023-05-07T12:16:04;1.98;;;1.50;;
39822;SDS011;25499;53.958;10.970;2023-05-07T12:18:34;2.58;;;1.42;;
39822;SDS011;25499;53.958;10.970;2023-05-07T12:21:01;1.67;;;1.40;;
39822;SDS011;25499;53.958;10.970;2023-05-07T12:23:30;2.97;;;1.60;;
39822;SDS011;25499;53.958;10.970;2023-05-07T12:25:57;2.17;;;1.33;;
39822;SDS011;25499;53.958;10.970;2023-05-07T12:28:25;2.17;;;1.60;;
39822;SDS011;25499;53.958;10.970;2023-05-07T12:30:51;4.97;;;1.40;;
39822;SDS011;25499;53.958;10.970;2023-05-07T12:33:22;2.78;;;1.50;;
39822;SDS011;25499;53.958;10.970;2023-05-07T12:35:53;4.22;;;1.80;;
39822;SDS011;25499;53.958;10.970;2023-05-07T12:38:21;2.22;;;1.40;;
39822;SDS011;25499;53.958;10.970;2023-05-07T12:40:48;3.72;;;1.60;;
39822;SDS011;25499;53.958;10.970;2023-05-07T12:43:17;2.33;;;1.35;;
39822;SDS011;25499;53.958;10.970;2023-05-07T12:45:44;1.48;;;1.38;;
39822;SDS011;25499;53.958;10.970;2023-05-07T12:48:12;4.85;;;1.52;;
39822;SDS011;25499;53.958;10.970;2023-05-07T12:50:39;2.80;;;1.70;;
39822;SDS011;25499;53.958;10.970;2023-05-07T12:53:08;1.90;;;0.95;;
39822;SDS011;25499;53.958;10.970;2023-05-07T12:55:40;3.88;;;1.58;;
39822;SDS011;25499;53.958;10.970;2023-05-07T12:58:08;1.83;;;1.55;;
39822;SDS011;25499;53.958;10.970;2023-05-07T13:00:41;2.17;;;1.52;;
39822;SDS011;25499;53.958;10.970;2023-05-07T13:03:09;1.90;;;1.30;;
39822;SDS011;25499;53.958;10.970;2023-05-07T13:05:36;2.63;;;1.52;;
39822;SDS011;25499;53.958;10.970;2023-05-07T13:08:03;3.08;;;1.60;;
39822;SDS011;25499;53.958;10.970;2023-05-07T13:10:31;2.00;;;1.33;;
39822;SDS011;25499;53.958;10.970;2023-05-07T13:12:59;1.73;;;1.50;;
39822;SDS011;25499;53.958;10.970;2023-05-07T13:15:26;4.25;;;1.55;;
39822;SDS011;25499;53.958;10.970;2023-05-07T13:17:53;2.08;;;1.70;;
39822;SDS011;25499;53.958;10.970;2023-05-07T13:20:21;2.67;;;1.75;;
39822;SDS011;25499;53.958;10.970;2023-05-07T13:22:47;3.33;;;1.70;;
39822;SDS011;25499;53.958;10.970;2023-05-07T13:25:15;2.15;;;1.80;;
39822;SDS011;25499;53.958;10.970;2023-05-07T13:27:43;2.33;;;1.80;;
39822;SDS011;25499;53.958;10.970;2023-05-07T13:30:09;3.30;;;1.65;;
39822;SDS011;25499;53.958;10.970;2023-05-07T13:32:36;1.98;;;1.60;;
39822;SDS011;25499;53.958;10.970;2023-05-07T13:35:03;2.47;;;1.63;;
39822;SDS011;25499;53.958;10.970;2023-05-07T13:37:31;3.50;;;1.60;;
39822;SDS011;25499;53.958;10.970;2023-05-07T13:39:58;3.20;;;1.88;;
39822;SDS011;25499;53.958;10.970;2023-05-07T13:42:24;1.92;;;1.73;;
39822;SDS011;25499;53.958;10.970;2023-05-07T13:44:52;3.05;;;1.60;;
39822;SDS011;25499;53.958;10.970;2023-05-07T13:47:19;3.58;;;1.98;;
39822;SDS011;25499;53.958;10.970;2023-05-07T13:49:46;2.17;;;1.80;;
39822;SDS011;25499;53.958;10.970;2023-05-07T13:52:14;3.53;;;1.70;;
39822;SDS011;25499;53.958;10.970;2023-05-07T13:54:42;2.28;;;1.63;;
39822;SDS011;25499;53.958;10.970;2023-05-07T13:57:09;3.53;;;1.83;;
39822;SDS011;25499;53.958;10.970;2023-05-07T13:59:35;3.80;;;1.90;;
39822;SDS011;25499;53.958;10.970;2023-05-07T14:02:04;1.90;;;1.75;;
39822;SDS011;25499;53.958;10.970;2023-05-07T14:04:31;2.17;;;1.67;;
39822;SDS011;25499;53.958;10.970;2023-05-07T14:06:57;2.50;;;1.70;;
39822;SDS011;25499;53.958;10.970;2023-05-07T14:09:24;2.78;;;1.70;;
39822;SDS011;25499;53.958;10.970;2023-05-07T14:11:51;2.88;;;1.77;;
39822;SDS011;25499;53.958;10.970;2023-05-07T14:14:18;2.35;;;1.75;;
39822;SDS011;25499;53.958;10.970;2023-05-07T14:16:44;2.10;;;1.90;;
39822;SDS011;25499;53.958;10.970;2023-05-07T14:19:12;2.40;;;1.98;;
39822;SDS011;25499;53.958;10.970;2023-05-07T14:21:39;3.15;;;1.85;;
39822;SDS011;25499;53.958;10.970;2023-05-07T14:24:06;3.22;;;1.80;;
39822;SDS011;25499;53.958;10.970;2023-05-07T14:26:33;2.90;;;1.60;;
39822;SDS011;25499;53.958;10.970;2023-05-07T14:29:00;2.47;;;1.52;;
39822;SDS011;25499;53.958;10.970;2023-05-07T14:31:27;4.38;;;1.60;;
39822;SDS011;25499;53.958;10.970;2023-05-07T14:33:53;3.85;;;1.50;;
39822;SDS011;25499;53.958;10.970;2023-05-07T14:36:21;6.47;;;2.33;;
39822;SDS011;25499;53.958;10.970;2023-05-07T14:41:17;2.72;;;1.80;;
39822;SDS011;25499;53.958;10.970;2023-05-07T14:43:44;1.67;;;1.45;;
39822;SDS011;25499;53.958;10.970;2023-05-07T14:46:15;1.90;;;1.17;;
39822;SDS011;25499;53.958;10.970;2023-05-07T14:48:43;4.50;;;1.75;;
39822;SDS011;25499;53.958;10.970;2023-05-07T14:51:10;2.13;;;1.92;;
39822;SDS011;25499;53.958;10.970;2023-05-07T14:53:38;3.25;;;2.00;;
39822;SDS011;25499;53.958;10.970;2023-05-07T14:56:05;2.15;;;1.90;;
39822;SDS011;25499;53.958;10.970;2023-05-07T14:58:32;2.78;;;1.98;;
39822;SDS011;25499;53.958;10.970;2023-05-07T15:00:59;2.22;;;1.95;;
39822;SDS011;25499;53.958;10.970;2023-05-07T15:03:26;3.17;;;1.80;;
39822;SDS011;25499;53.958;10.970;2023-05-07T15:05:53;4.45;;;1.80;;
39822;SDS011;25499;53.958;10.970;2023-05-07T15:08:19;2.67;;;2.25;;
39822;SDS011;25499;53.958;10.970;2023-05-07T15:10:47;4.50;;;2.08;;
39822;SDS011;25499;53.958;10.970;2023-05-07T15:13:14;3.90;;;1.88;;
39822;SDS011;25499;53.958;10.970;2023-05-07T15:15:41;1.95;;;1.70;;
39822;SDS011;25499;53.958;10.970;2023-05-07T15:18:08;3.83;;;1.73;;
39822;SDS011;25499;53.958;10.970;2023-05-07T15:20:36;4.05;;;1.95;;
39822;SDS011;25499;53.958;10.970;2023-05-07T15:23:02;2.92;;;1.83;;
39822;SDS011;25499;53.958;10.970;2023-05-07T15:25:30;2.95;;;2.03;;
39822;SDS011;25499;53.958;10.970;2023-05-07T15:28:00;1.85;;;1.40;;
39822;SDS011;25499;53.958;10.970;2023-05-07T15:30:26;2.67;;;2.03;;
39822;SDS011;25499;53.958;10.970;2023-05-07T15:32:55;2.17;;;1.98;;
39822;SDS011;25499;53.958;10.970;2023-05-07T15:35:22;2.70;;;2.10;;
39822;SDS011;25499;53.958;10.970;2023-05-07T15:37:48;5.40;;;2.40;;
39822;SDS011;25499;53.958;10.970;2023-05-07T15:40:15;5.10;;;2.35;;
39822;SDS011;25499;53.958;10.970;2023-05-07T15:42:42;4.57;;;2.42;;
39822;SDS011;25499;53.958;10.970;2023-05-07T15:45:12;4.18;;;2.30;;
39822;SDS011;25499;53.958;10.970;2023-05-07T15:47:39;3.47;;;2.20;;
39822;SDS011;25499;53.958;10.970;2023-05-07T15:50:06;3.03;;;2.30;;
39822;SDS011;25499;53.958;10.970;2023-05-07T15:52:33;3.05;;;2.13;;
39822;SDS011;25499;53.958;10.970;2023-05-07T15:55:00;4.57;;;2.50;;
39822;SDS011;25499;53.958;10.970;2023-05-07T15:57:27;3.05;;;2.28;;
39822;SDS011;25499;53.958;10.970;2023-05-07T15:59:54;2.85;;;1.75;;
39822;SDS011;25499;53.958;10.970;2023-05-07T16:02:22;3.35;;;2.30;;
39822;SDS011;25499;53.958;10.970;2023-05-07T16:04:49;3.40;;;2.30;;
39822;SDS011;25499;53.958;10.970;2023-05-07T16:07:16;3.97;;;2.10;;
39822;SDS011;25499;53.958;10.970;2023-05-07T16:09:43;3.20;;;2.20;;
39822;SDS011;25499;53.958;10.970;2023-05-07T16:12:10;3.95;;;2.30;;
39822;SDS011;25499;53.958;10.970;2023-05-07T16:14:37;3.60;;;2.20;;
39822;SDS011;25499;53.958;10.970;2023-05-07T16:17:04;4.32;;;2.10;;
39822;SDS011;25499;53.958;10.970;2023-05-07T16:19:32;4.10;;;2.00;;
39822;SDS011;25499;53.958;10.970;2023-05-07T16:21:59;2.58;;;1.50;;
39822;SDS011;25499;53.958;10.970;2023-05-07T16:24:25;2.38;;;1.90;;
39822;SDS011;25499;53.958;10.970;2023-05-07T16:26:52;2.20;;;1.92;;
39822;SDS011;25499;53.958;10.970;2023-05-07T16:29:19;3.25;;;2.13;;
39822;SDS011;25499;53.958;10.970;2023-05-07T16:31:47;3.00;;;2.22;;
39822;SDS011;25499;53.958;10.970;2023-05-07T16:34:14;2.10;;;1.83;;
39822;SDS011;25499;53.958;10.970;2023-05-07T16:36:42;4.53;;;2.13;;
39822;SDS011;25499;53.958;10.970;2023-05-07T16:39:09;4.05;;;2.25;;
39822;SDS011;25499;53.958;10.970;2023-05-07T16:41:35;5.25;;;1.90;;
39822;SDS011;25499;53.958;10.970;2023-05-07T16:44:03;2.30;;;2.05;;
39822;SDS011;25499;53.958;10.970;2023-05-07T16:46:30;3.38;;;2.13;;
39822;SDS011;25499;53.958;10.970;2023-05-07T16:48:57;1.80;;;1.60;;
39822;SDS011;25499;53.958;10.970;2023-05-07T16:51:23;3.58;;;1.77;;
39822;SDS011;25499;53.958;10.970;2023-05-07T16:53:53;4.00;;;2.13;;
39822;SDS011;25499;53.958;10.970;2023-05-07T16:56:19;2.75;;;2.25;;
39822;SDS011;25499;53.958;10.970;2023-05-07T16:58:46;5.53;;;1.65;;
39822;SDS011;25499;53.958;10.970;2023-05-07T17:01:13;3.22;;;1.92;;
39822;SDS011;25499;53.958;10.970;2023-05-07T17:03:40;2.88;;;1.90;;
39822;SDS011;25499;53.958;10.970;2023-05-07T17:06:07;3.63;;;2.10;;
39822;SDS011;25499;53.958;10.970;2023-05-07T17:08:38;3.10;;;1.80;;
39822;SDS011;25499;53.958;10.970;2023-05-07T17:11:06;2.25;;;1.73;;
39822;SDS011;25499;53.958;10.970;2023-05-07T17:13:32;5.25;;;1.77;;
39822;SDS011;25499;53.958;10.970;2023-05-07T17:15:59;3.47;;;1.73;;
39822;SDS011;25499;53.958;10.970;2023-05-07T17:18:26;2.95;;;2.00;;
39822;SDS011;25499;53.958;10.970;2023-05-07T17:20:53;2.25;;;1.80;;
39822;SDS011;25499;53.958;10.970;2023-05-07T17:23:19;3.10;;;2.03;;
39822;SDS011;25499;53.958;10.970;2023-05-07T17:25:46;2.10;;;1.45;;
39822;SDS011;25499;53.958;10.970;2023-05-07T17:28:14;2.25;;;1.80;;
39822;SDS011;25499;53.958;10.970;2023-05-07T17:30:41;3.45;;;1.95;;
39822;SDS011;25499;53.958;10.970;2023-05-07T17:33:08;2.22;;;1.60;;
39822;SDS011;25499;53.958;10.970;2023-05-07T17:35:34;3.28;;;1.50;;
39822;SDS011;25499;53.958;10.970;2023-05-07T17:38:01;3.50;;;1.55;;
39822;SDS011;25499;53.958;10.970;2023-05-07T17:40:28;2.65;;;1.75;;
39822;SDS011;25499;53.958;10.970;2023-05-07T17:42:55;2.05;;;1.58;;
39822;SDS011;25499;53.958;10.970;2023-05-07T17:45:23;2.00;;;1.60;;
39822;SDS011;25499;53.958;10.970;2023-05-07T17:47:49;3.25;;;1.60;;
39822;SDS011;25499;53.958;10.970;2023-05-07T17:50:16;3.40;;;1.83;;
39822;SDS011;25499;53.958;10.970;2023-05-07T17:52:45;2.65;;;1.67;;
39822;SDS011;25499;53.958;10.970;2023-05-07T17:55:12;2.42;;;1.70;;
39822;SDS011;25499;53.958;10.970;2023-05-07T17:57:39;4.32;;;1.80;;
39822;SDS011;25499;53.958;10.970;2023-05-07T18:00:06;2.78;;;1.50;;
39822;SDS011;25499;53.958;10.970;2023-05-07T18:02:36;2.83;;;1.50;;
39822;SDS011;25499;53.958;10.970;2023-05-07T18:05:03;3.40;;;1.70;;
39822;SDS011;25499;53.958;10.970;2023-05-07T18:07:30;1.70;;;1.52;;
39822;SDS011;25499;53.958;10.970;2023-05-07T18:09:57;3.83;;;1.80;;
39822;SDS011;25499;53.958;10.970;2023-05-07T18:12:24;7.10;;;1.75;;
39822;SDS011;25499;53.958;10.970;2023-05-07T18:14:51;3.00;;;1.60;;
39822;SDS011;25499;53.958;10.970;2023-05-07T18:17:17;2.80;;;1.55;;
39822;SDS011;25499;53.958;10.970;2023-05-07T18:19:49;2.40;;;1.70;;
39822;SDS011;25499;53.958;10.970;2023-05-07T18:22:16;3.22;;;1.70;;
39822;SDS011;25499;53.958;10.970;2023-05-07T18:24:42;4.03;;;1.73;;
39822;SDS011;25499;53.958;10.970;2023-05-07T18:27:09;4.03;;;1.42;;
39822;SDS011;25499;53.958;10.970;2023-05-07T18:29:37;4.70;;;1.58;;
39822;SDS011;25499;53.958;10.970;2023-05-07T18:32:04;2.22;;;1.65;;
39822;SDS011;25499;53.958;10.970;2023-05-07T18:34:31;2.75;;;1.70;;
39822;SDS011;25499;53.958;10.970;2023-05-07T18:36:59;2.42;;;1.65;;
39822;SDS011;25499;53.958;10.970;2023-05-07T18:39:26;5.18;;;2.05;;
39822;SDS011;25499;53.958;10.970;2023-05-07T18:41:52;3.42;;;1.63;;
39822;SDS011;25499;53.958;10.970;2023-05-07T18:44:20;2.53;;;1.70;;
39822;SDS011;25499;53.958;10.970;2023-05-07T18:46:47;2.03;;;1.70;;
39822;SDS011;25499;53.958;10.970;2023-05-07T18:49:14;2.85;;;1.77;;
39822;SDS011;25499;53.958;10.970;2023-05-07T18:51:40;3.58;;;1.90;;
39822;SDS011;25499;53.958;10.970;2023-05-07T18:54:09;3.70;;;1.90;;
39822;SDS011;25499;53.958;10.970;2023-05-07T18:56:35;2.17;;;1.80;;
39822;SDS011;25499;53.958;10.970;2023-05-07T18:59:02;3.80;;;1.83;;
39822;SDS011;25499;53.958;10.970;2023-05-07T19:01:29;3.92;;;1.60;;
39822;SDS011;25499;53.958;10.970;2023-05-07T19:03:55;2.08;;;1.80;;
39822;SDS011;25499;53.958;10.970;2023-05-07T19:06:22;3.03;;;1.60;;
39822;SDS011;25499;53.958;10.970;2023-05-07T19:08:49;2.83;;;2.22;;
39822;SDS011;25499;53.958;10.970;2023-05-07T19:11:18;2.78;;;1.90;;
39822;SDS011;25499;53.958;10.970;2023-05-07T19:13:44;1.95;;;1.77;;
39822;SDS011;25499;53.958;10.970;2023-05-07T19:16:11;5.03;;;2.03;;
39822;SDS011;25499;53.958;10.970;2023-05-07T19:18:38;2.17;;;1.80;;
39822;SDS011;25499;53.958;10.970;2023-05-07T19:21:05;2.30;;;2.00;;
39822;SDS011;25499;53.958;10.970;2023-05-07T19:23:33;2.17;;;1.92;;
39822;SDS011;25499;53.958;10.970;2023-05-07T19:26:05;2.92;;;2.22;;
39822;SDS011;25499;53.958;10.970;2023-05-07T19:28:34;3.65;;;2.28;;
39822;SDS011;25499;53.958;10.970;2023-05-07T19:31:01;3.25;;;2.33;;
39822;SDS011;25499;53.958;10.970;2023-05-07T19:33:27;4.85;;;2.40;;
39822;SDS011;25499;53.958;10.970;2023-05-07T19:35:55;3.20;;;2.50;;
39822;SDS011;25499;53.958;10.970;2023-05-07T19:38:22;5.35;;;2.25;;
39822;SDS011;25499;53.958;10.970;2023-05-07T19:40:51;2.30;;;1.95;;
39822;SDS011;25499;53.958;10.970;2023-05-07T19:43:17;6.25;;;2.83;;
39822;SDS011;25499;53.958;10.970;2023-05-07T19:45:46;4.18;;;2.40;;
39822;SDS011;25499;53.958;10.970;2023-05-07T19:48:14;3.45;;;2.50;;
39822;SDS011;25499;53.958;10.970;2023-05-07T19:50:41;4.07;;;2.70;;
39822;SDS011;25499;53.958;10.970;2023-05-07T19:53:08;3.60;;;2.67;;
39822;SDS011;25499;53.958;10.970;2023-05-07T19:55:35;4.95;;;2.80;;
39822;SDS011;25499;53.958;10.970;2023-05-07T19:58:01;3.40;;;2.72;;
39822;SDS011;25499;53.958;10.970;2023-05-07T20:00:28;3.42;;;2.78;;
